Time;durP1;ratioP1;P1;durP2;ratioP2;P2;SDS_P1;SDS_P2;PMS_P1;PMS_P2;Temp;Humidity;BMP_temperature;BMP_pressure;BME280_temperature;BME280_humidity;BME280_pressure;Samples;Min_cycle;Max_cycle;Signal;HPM_P1;HPM_P2
2022/05/12 00:00:56;;;;;;;1.97;1.87;;;;;;;20.87;34.38;97882.09;5073609;28;20211;-70
2022/05/12 00:03:24;;;;;;;4.33;1.87;;;;;;;20.76;34.90;97888.69;5073249;28;20223;-71
2022/05/12 00:05:51;;;;;;;2.40;1.63;;;;;;;20.76;35.02;97886.00;5073530;28;20208;-70
2022/05/12 00:08:17;;;;;;;2.33;1.80;;;;;;;20.65;35.17;97891.81;5073165;28;20231;-70
2022/05/12 00:10:44;;;;;;;2.47;2.03;;;;;;;20.52;35.82;97896.00;5073162;28;20658;-71
2022/05/12 00:13:11;;;;;;;5.33;1.80;;;;;;;20.51;35.69;97893.56;5073505;28;20208;-70
2022/05/12 00:15:38;;;;;;;2.67;1.73;;;;;;;20.56;35.64;97902.44;5073451;28;20211;-71
2022/05/12 00:18:08;;;;;;;4.17;1.80;;;;;;;20.46;35.67;97905.25;5073298;28;20243;-71
2022/05/12 00:20:37;;;;;;;3.63;1.97;;;;;;;20.42;35.97;97896.09;5073388;28;20239;-70
2022/05/12 00:23:24;;;;;;;2.70;1.97;;;;;;;20.31;36.45;97902.72;5073341;28;20211;-70
2022/05/12 00:25:51;;;;;;;2.33;1.80;;;;;;;20.26;36.82;97902.72;5073383;28;20189;-70
2022/05/12 00:28:20;;;;;;;3.00;1.73;;;;;;;20.27;36.62;97898.97;5072945;28;20244;-70
2022/05/12 00:30:48;;;;;;;2.60;2.00;;;;;;;20.21;36.81;97905.47;5073276;28;20204;-70
2022/05/12 00:33:17;;;;;;;2.20;2.03;;;;;;;20.12;37.77;97909.09;5072949;28;20208;-70
2022/05/12 00:35:45;;;;;;;2.20;2.00;;;;;;;20.18;37.27;97910.66;5073228;28;20205;-70
2022/05/12 00:38:12;;;;;;;2.47;2.07;;;;;;;20.14;37.41;97915.00;5073090;28;20357;-70
2022/05/12 00:40:42;;;;;;;2.63;1.90;;;;;;;20.09;37.85;97912.34;5073183;28;20204;-70
2022/05/12 00:43:29;;;;;;;2.63;2.07;;;;;;;20.03;38.01;97908.06;5073173;28;20205;-70
2022/05/12 00:45:56;;;;;;;2.80;2.07;;;;;;;19.99;38.38;97923.19;5072788;28;20212;-70
2022/05/12 00:48:22;;;;;;;3.97;2.10;;;;;;;20.02;38.20;97919.94;5072694;28;20726;-70
2022/05/12 00:50:49;;;;;;;2.13;1.93;;;;;;;19.97;38.46;97915.38;5072419;28;20215;-70
2022/05/12 00:53:16;;;;;;;2.40;2.00;;;;;;;19.95;38.83;97911.34;5072733;28;20212;-70
2022/05/12 00:55:45;;;;;;;2.07;1.97;;;;;;;19.94;38.78;97923.25;5072724;28;20717;-70
2022/05/12 00:58:17;;;;;;;2.50;2.10;;;;;;;19.93;39.05;97929.72;5072596;28;20722;-70
2022/05/12 01:00:45;;;;;;;3.73;2.10;;;;;;;20.00;39.39;97932.91;5073070;28;20188;-70
2022/05/12 01:03:19;;;;;;;2.20;2.00;;;;;;;20.01;39.76;97921.00;5072957;28;20205;-70
2022/05/12 01:05:46;;;;;;;2.10;1.93;;;;;;;20.00;39.39;97927.50;5076077;28;20192;-70
2022/05/12 01:08:15;;;;;;;3.27;2.10;;;;;;;20.01;39.80;97926.41;5076261;28;20733;-70
2022/05/12 01:10:46;;;;;;;3.80;2.47;;;;;;;20.05;39.93;97932.84;5076591;28;20201;-70
2022/05/12 01:13:12;;;;;;;2.33;2.13;;;;;;;19.94;40.35;97934.03;5076557;28;20189;-70
2022/05/12 01:15:50;;;;;;;2.77;2.17;;;;;;;19.83;41.36;97930.59;5076506;28;20205;-71
2022/05/12 01:18:17;;;;;;;3.93;2.07;;;;;;;19.82;41.63;97939.78;5076401;28;20231;-70
2022/05/12 01:20:45;;;;;;;2.77;2.10;;;;;;;19.78;41.49;97936.03;5076068;28;20688;-70
2022/05/12 01:23:38;;;;;;;4.00;2.17;;;;;;;19.73;42.09;97947.66;5076374;28;20211;-70
2022/05/12 01:26:08;;;;;;;3.37;2.23;;;;;;;19.77;42.53;97947.09;5076024;28;20219;-71
2022/05/12 01:28:36;;;;;;;4.00;2.10;;;;;;;19.61;43.39;97946.38;5076225;28;20221;-70
2022/05/12 01:31:04;;;;;;;2.80;2.20;;;;;;;19.62;42.51;97952.59;5075892;28;20540;-70
2022/05/12 01:33:31;;;;;;;4.70;2.30;;;;;;;19.57;43.58;97960.72;5075899;28;20681;-71
2022/05/12 01:35:57;;;;;;;3.63;2.43;;;;;;;19.75;41.59;97958.16;5075816;28;20659;-71
2022/05/12 01:38:24;;;;;;;2.33;2.13;;;;;;;19.62;43.67;97960.69;5075691;28;20231;-70
2022/05/12 01:40:52;;;;;;;3.33;2.03;;;;;;;19.56;43.11;97970.69;5076056;28;20211;-70
2022/05/12 01:43:19;;;;;;;2.50;2.30;;;;;;;19.49;43.82;97978.25;5075740;28;20204;-70
2022/05/12 01:45:46;;;;;;;2.47;2.20;;;;;;;19.37;44.30;97985.88;5075969;28;20212;-70
2022/05/12 01:48:14;;;;;;;4.03;2.13;;;;;;;19.31;44.38;97987.78;5075845;28;20228;-70
2022/05/12 01:50:43;;;;;;;3.97;2.30;;;;;;;19.20;44.60;97985.38;5075578;28;20200;-70
2022/05/12 01:53:10;;;;;;;2.37;2.17;;;;;;;19.13;45.10;97996.44;5075594;28;20213;-71
2022/05/12 01:55:39;;;;;;;4.73;2.47;;;;;;;19.06;45.51;97995.94;5075802;28;20201;-71
2022/05/12 01:58:06;;;;;;;5.57;2.50;;;;;;;19.11;44.88;97995.94;5075375;28;20596;-70
2022/05/12 02:00:33;;;;;;;2.50;2.00;;;;;;;18.98;47.33;97999.19;5075706;28;20209;-70
2022/05/12 02:03:00;;;;;;;3.30;3.00;;;;;;;18.97;45.92;98004.84;5075668;28;20204;-70
2022/05/12 02:05:29;;;;;;;3.77;2.50;;;;;;;19.03;46.04;98009.97;5075612;28;20200;-70
2022/05/12 02:07:56;;;;;;;2.77;2.10;;;;;;;18.94;48.18;98008.91;5075489;28;20216;-70
2022/05/12 02:10:28;;;;;;;3.77;2.50;;;;;;;18.87;48.57;98007.59;5075562;28;20205;-70
2022/05/12 02:12:55;;;;;;;2.53;2.33;;;;;;;18.89;47.94;98000.84;5075164;28;20705;-70
2022/05/12 02:15:21;;;;;;;2.80;2.60;;;;;;;18.86;48.43;98019.44;5075002;28;20291;-70
2022/05/12 02:17:49;;;;;;;3.70;2.40;;;;;;;18.81;49.21;98008.66;5075251;28;20232;-70
2022/05/12 02:20:18;;;;;;;4.30;2.13;;;;;;;18.80;49.20;98018.63;5075737;28;20300;-70
2022/05/12 02:22:44;;;;;;;4.33;2.60;;;;;;;19.15;48.85;98020.44;5075234;28;20205;-70
2022/05/12 02:25:11;;;;;;;3.50;2.37;;;;;;;19.28;49.24;98011.81;5075199;28;20295;-70
2022/05/12 02:27:42;;;;;;;3.20;2.73;;;;;;;19.30;49.58;98020.41;5075126;28;20220;-70
2022/05/12 02:30:11;;;;;;;4.10;2.60;;;;;;;19.26;50.27;98017.47;5075139;28;20189;-70
2022/05/12 02:32:37;;;;;;;4.30;2.37;;;;;;;19.32;50.12;98027.13;5074776;28;20200;-70
2022/05/12 02:35:04;;;;;;;4.97;2.60;;;;;;;19.39;50.07;98033.06;5074994;28;20253;-70
2022/05/12 02:37:30;;;;;;;3.43;2.30;;;;;;;19.38;50.42;98031.44;5074816;28;20579;-70
2022/05/12 02:39:57;;;;;;;3.33;2.50;;;;;;;19.46;49.68;98035.47;5074926;28;20602;-70
2022/05/12 02:42:23;;;;;;;3.27;2.20;;;;;;;19.35;50.85;98039.25;5074856;28;20239;-70
2022/05/12 02:44:49;;;;;;;2.67;1.87;;;;;;;19.51;50.10;98038.91;5074806;28;20578;-71
2022/05/12 02:47:16;;;;;;;4.80;2.20;;;;;;;19.90;48.98;98043.59;5074591;28;20251;-70
2022/05/12 02:49:42;;;;;;;4.13;1.73;;;;;;;19.93;49.13;98043.06;5074587;28;20565;-70
2022/05/12 02:52:09;;;;;;;3.67;1.67;;;;;;;19.91;49.42;98051.44;5074193;28;20219;-70
2022/05/12 02:54:36;;;;;;;1.67;1.57;;;;;;;19.92;50.16;98049.53;5074649;28;20200;-70
2022/05/12 02:57:03;;;;;;;4.43;1.67;;;;;;;19.96;49.77;98045.19;5074451;28;20204;-70
2022/05/12 02:59:30;;;;;;;3.83;1.80;;;;;;;19.92;49.71;98052.22;5074487;28;20212;-70
2022/05/12 03:01:57;;;;;;;1.70;1.60;;;;;;;19.84;50.39;98050.13;5074391;28;20204;-70
2022/05/12 03:04:24;;;;;;;2.23;1.40;;;;;;;19.87;50.13;98060.34;5074085;28;20683;-71
2022/05/12 03:06:51;;;;;;;3.00;1.50;;;;;;;19.83;50.14;98052.00;5074154;28;20287;-71
2022/05/12 03:09:17;;;;;;;3.27;1.60;;;;;;;19.80;50.66;98062.56;5073832;28;20291;-71
2022/05/12 03:11:43;;;;;;;1.67;1.33;;;;;;;19.66;51.41;98072.34;5073748;28;20684;-70
2022/05/12 03:14:11;;;;;;;1.67;1.40;;;;;;;19.68;50.75;98071.75;5074073;28;20211;-71
2022/05/12 03:16:38;;;;;;;1.77;1.67;;;;;;;19.58;51.54;98067.50;5073846;28;20205;-70
2022/05/12 03:19:05;;;;;;;1.63;1.30;;;;;;;19.53;51.49;98074.53;5073267;28;20687;-70
2022/05/12 03:21:31;;;;;;;2.23;1.43;;;;;;;19.51;51.86;98076.69;5073945;28;20200;-70
2022/05/12 03:23:58;;;;;;;2.77;1.33;;;;;;;19.49;51.49;98080.72;5073903;28;20204;-70
2022/05/12 03:26:24;;;;;;;2.00;1.57;;;;;;;19.41;52.11;98087.50;5074081;28;20212;-70
2022/05/12 03:28:51;;;;;;;2.70;1.43;;;;;;;19.44;51.92;98084.25;5073611;28;20217;-70
2022/05/12 03:31:18;;;;;;;2.27;1.40;;;;;;;19.41;52.23;98090.19;5074420;28;20204;-71
2022/05/12 03:33:46;;;;;;;3.87;1.60;;;;;;;19.41;52.66;98100.19;5074298;28;20214;-70
2022/05/12 03:36:12;;;;;;;5.97;1.87;;;;;;;19.33;52.65;98088.09;5073368;28;20299;-70
2022/05/12 03:38:39;;;;;;;2.47;1.60;;;;;;;19.38;52.41;98088.06;5073340;28;20229;-70
2022/05/12 03:41:06;;;;;;;2.83;1.60;;;;;;;19.38;52.32;98090.75;5073270;28;20668;-70
2022/05/12 03:46:17;;;;;;;2.10;1.60;;;;;;;19.23;53.41;98101.56;5073313;28;20175;-70
2022/05/12 03:48:43;;;;;;;4.50;1.60;;;;;;;19.19;52.92;98108.53;5073523;28;20220;-70
2022/05/12 03:51:11;;;;;;;3.83;1.47;;;;;;;19.26;52.77;98109.13;5073799;28;20765;-70
2022/05/12 03:53:37;;;;;;;2.20;1.63;;;;;;;19.23;53.25;98112.34;5073207;28;20270;-71
2022/05/12 03:56:06;;;;;;;2.57;1.47;;;;;;;19.20;53.05;98117.44;5073221;28;20216;-70
2022/05/12 03:58:33;;;;;;;3.33;1.60;;;;;;;19.26;52.73;98119.06;5073302;28;20233;-70
2022/05/12 04:01:00;;;;;;;3.03;1.57;;;;;;;19.32;52.52;98123.41;5073446;28;20303;-70
2022/05/12 04:03:27;;;;;;;2.03;1.60;;;;;;;19.42;52.30;98126.06;5073472;28;20219;-71
2022/05/12 04:05:56;;;;;;;3.23;1.50;;;;;;;19.27;53.22;98124.19;5073950;28;20266;-70
2022/05/12 04:08:22;;;;;;;3.77;1.40;;;;;;;19.38;52.37;98125.81;5072905;28;20730;-70
2022/05/12 04:10:49;;;;;;;2.50;1.30;;;;;;;19.23;53.31;98133.91;5073687;28;20685;-70
2022/05/12 04:13:17;;;;;;;4.43;1.63;;;;;;;19.27;53.01;98143.06;5073230;28;20208;-70
2022/05/12 04:15:43;;;;;;;4.33;1.50;;;;;;;19.26;52.87;98146.84;5073026;28;20254;-70
2022/05/12 04:18:10;;;;;;;2.33;1.50;;;;;;;19.20;53.26;98156.00;5073211;28;20224;-70
2022/05/12 04:20:37;;;;;;;2.20;1.40;;;;;;;19.23;53.48;98154.69;5073432;28;20219;-70
2022/05/12 04:23:04;;;;;;;5.23;1.77;;;;;;;19.15;54.51;98157.88;5073215;28;20212;-71
2022/05/12 04:25:31;;;;;;;1.60;1.50;;;;;;;19.07;54.74;98161.13;5072903;28;20204;-70
2022/05/12 04:27:57;;;;;;;1.80;1.40;;;;;;;19.11;53.77;98157.63;5072606;28;20220;-70
2022/05/12 04:30:26;;;;;;;3.13;1.80;;;;;;;19.09;54.36;98172.47;5073209;28;20204;-70
2022/05/12 04:32:53;;;;;;;2.07;1.63;;;;;;;19.08;54.51;98171.63;5073043;28;20212;-70
2022/05/12 04:35:20;;;;;;;3.90;1.73;;;;;;;19.06;54.95;98171.09;5072067;28;20686;-70
2022/05/12 04:37:51;;;;;;;3.57;1.80;;;;;;;19.03;55.58;98184.28;5072119;28;20323;-70
2022/05/12 04:40:23;;;;;;;2.93;1.60;;;;;;;18.95;56.23;98185.66;5076686;28;20632;-70
2022/05/12 04:42:51;;;;;;;7.67;5.80;;;;;;;18.98;56.11;98181.59;5076466;28;20196;-70
2022/05/12 04:45:19;;;;;;;3.63;2.13;;;;;;;18.91;55.91;98179.16;5076600;28;20209;-70
2022/05/12 04:47:47;;;;;;;4.67;3.30;;;;;;;19.04;55.96;98193.97;5076290;28;20220;-70
2022/05/12 04:50:18;;;;;;;5.03;2.10;;;;;;;18.98;56.62;98193.19;5076723;28;20212;-70
2022/05/12 04:52:45;;;;;;;3.10;1.77;;;;;;;18.99;55.62;98197.50;5076357;28;20216;-70
2022/05/12 04:55:12;;;;;;;2.40;1.43;;;;;;;19.20;55.12;98201.81;5076350;28;20208;-71
2022/05/12 04:57:41;;;;;;;2.30;1.60;;;;;;;19.54;54.44;98202.09;5076149;28;20228;-71
2022/05/12 05:00:13;;;;;;;6.73;1.60;;;;;;;19.90;54.43;98213.59;5076147;28;20622;-70
2022/05/12 05:02:40;;;;;;;5.67;1.60;;;;;;;20.19;52.70;98214.59;5076383;28;20189;-70
2022/05/12 05:05:07;;;;;;;4.13;2.40;;;;;;;20.36;51.99;98217.78;5076480;28;20235;-70
2022/05/12 05:07:34;;;;;;;4.70;1.83;;;;;;;20.29;53.29;98211.84;5076168;28;20235;-70
2022/05/12 05:10:00;;;;;;;3.00;1.90;;;;;;;20.18;53.11;98224.59;5076301;28;20227;-70
2022/05/12 05:12:27;;;;;;;8.50;6.87;;;;;;;20.15;53.25;98235.13;5076157;28;20310;-70
2022/05/12 05:14:53;;;;;;;2.17;1.93;;;;;;;19.89;54.07;98231.66;5076007;28;20204;-70
2022/05/12 05:17:19;;;;;;;2.53;1.60;;;;;;;19.64;54.74;98229.03;5075696;28;20224;-70
2022/05/12 05:19:46;;;;;;;4.17;1.90;;;;;;;19.44;54.89;98232.56;5075749;28;20224;-70
2022/05/12 05:22:12;;;;;;;3.63;1.87;;;;;;;19.44;55.35;98234.44;5075910;28;20209;-70
2022/05/12 05:24:39;;;;;;;3.40;2.40;;;;;;;19.39;55.86;98239.84;5075623;28;20209;-70
2022/05/12 05:27:06;;;;;;;3.63;1.80;;;;;;;19.42;55.26;98245.50;5075008;28;20211;-70
2022/05/12 05:29:32;;;;;;;3.10;2.80;;;;;;;19.37;56.18;98245.50;5075597;28;20204;-70
2022/05/12 05:31:59;;;;;;;4.33;2.10;;;;;;;19.46;56.53;98253.88;5075691;28;20216;-70
2022/05/12 05:34:26;;;;;;;4.00;2.67;;;;;;;19.35;57.77;98253.06;5075473;28;20209;-70
2022/05/12 05:36:52;;;;;;;3.90;1.57;;;;;;;19.36;56.61;98254.69;5075408;28;20224;-70
2022/05/12 05:39:27;;;;;;;2.30;1.90;;;;;;;19.10;57.36;98266.47;5074983;28;20224;-69
2022/05/12 05:41:58;;;;;;;4.10;2.20;;;;;;;19.21;57.89;98286.19;5075059;28;20283;-69
2022/05/12 05:44:25;;;;;;;4.90;2.03;;;;;;;19.24;57.38;98283.81;5074941;28;20197;-70
2022/05/12 05:46:51;;;;;;;4.37;1.80;;;;;;;19.22;57.38;98285.09;5074862;28;20563;-69
2022/05/12 05:49:17;;;;;;;3.67;3.13;;;;;;;19.24;57.25;98288.38;5074987;28;20204;-69
2022/05/12 05:54:31;;;;;;;3.73;2.40;;;;;;;19.26;57.40;98300.50;5074978;28;20195;-70
2022/05/12 05:56:58;;;;;;;4.90;2.80;;;;;;;19.36;56.74;98300.50;5074710;28;20659;-70
2022/05/12 05:59:25;;;;;;;6.93;2.17;;;;;;;19.25;58.18;98290.81;5075096;28;20360;-70
2022/05/12 06:01:51;;;;;;;6.00;3.30;;;;;;;19.08;57.88;98295.59;5076097;28;20218;-70
2022/05/12 06:04:47;;;;;;;4.30;1.60;;;;;;;19.04;58.16;98308.00;5075287;28;20212;-69
2022/05/12 06:07:32;;;;;;;4.30;1.90;;;;;;;18.95;58.17;98301.50;5070036;28;20229;-69
2022/05/12 06:15:47;;;;;;;2.00;1.60;;;;;;;18.85;58.56;98319.53;5052899;28;20211;-70
2022/05/12 06:18:25;;;;;;;3.27;1.77;;;;;;;18.90;58.52;98320.34;5074066;28;20267;-72
2022/05/12 06:20:55;;;;;;;4.90;1.70;;;;;;;18.94;59.69;98334.91;5074763;28;20185;-69
2022/05/12 06:24:05;;;;;;;3.50;1.70;;;;;;;19.08;58.42;98332.50;5075031;28;20208;-70
2022/05/12 06:26:42;;;;;;;3.87;1.87;;;;;;;19.19;58.16;98340.34;5068377;28;20200;-70
2022/05/12 06:29:09;;;;;;;3.50;1.60;;;;;;;19.07;58.73;98337.09;5074279;28;20220;-72
2022/05/12 06:31:36;;;;;;;4.07;1.70;;;;;;;19.08;58.50;98333.34;5074190;28;20717;-70
2022/05/12 06:34:03;;;;;;;3.23;1.70;;;;;;;19.37;58.94;98334.47;5074151;28;20663;-72
2022/05/12 06:36:29;;;;;;;3.77;1.83;;;;;;;19.50;58.37;98333.94;5074012;28;20683;-72
2022/05/12 06:38:56;;;;;;;2.00;1.20;;;;;;;19.48;60.11;98346.91;5074012;28;20276;-71
2022/05/12 06:41:23;;;;;;;4.40;1.63;;;;;;;19.46;59.60;98349.03;5074131;28;20576;-72
2022/05/12 06:43:50;;;;;;;3.73;1.90;;;;;;;19.46;58.54;98349.03;5073778;28;20630;-70
2022/05/12 06:46:19;;;;;;;3.00;1.60;;;;;;;19.41;58.94;98357.13;5074246;28;20294;-69
2022/05/12 06:48:47;;;;;;;3.97;1.67;;;;;;;19.31;60.17;98361.69;5073818;28;20323;-68
2022/05/12 06:51:15;;;;;;;2.50;1.60;;;;;;;19.38;59.80;98360.38;5074302;28;20239;-69
2022/05/12 06:53:42;;;;;;;1.77;1.50;;;;;;;19.35;58.75;98366.31;5074136;28;20216;-68
2022/05/12 06:56:09;;;;;;;2.20;1.50;;;;;;;19.23;59.39;98373.81;5074009;28;20209;-69
2022/05/12 06:58:37;;;;;;;2.20;1.50;;;;;;;19.29;59.46;98367.38;5073791;28;20235;-69
2022/05/12 07:01:34;;;;;;;7.00;1.47;;;;;;;19.15;60.96;98371.63;5073629;28;20207;-69
2022/05/12 07:07:52;;;;;;;2.33;1.40;;;;;;;19.27;59.21;98368.72;5071654;28;20230;-70
2022/05/12 07:10:36;;;;;;;4.73;1.60;;;;;;;19.29;61.21;98374.66;5073804;28;20551;-70
2022/05/12 07:13:04;;;;;;;6.47;1.60;;;;;;;19.35;59.69;98381.66;5073698;28;20200;-70
2022/05/12 07:15:52;;;;;;;3.67;1.70;;;;;;;19.48;59.59;98376.56;5073741;28;20208;-68
2022/05/12 07:18:22;;;;;;;2.67;1.47;;;;;;;19.49;59.10;98385.44;5073352;28;20281;-69
2022/05/12 07:33:27;;;;;;;2.53;1.30;;;;;;;19.10;60.31;98389.66;5031634;28;20321;-69
2022/05/12 07:40:21;;;;;;;2.40;1.60;;;;;;;19.02;61.26;98412.56;4936107;28;20392;-70
2022/05/12 07:42:50;;;;;;;3.40;1.60;;;;;;;19.09;61.59;98405.00;5052478;28;20266;-70
2022/05/12 07:45:41;;;;;;;4.33;1.93;;;;;;;19.08;61.29;98405.28;5073507;28;20208;-69
2022/05/12 07:51:56;;;;;;;2.37;1.53;;;;;;;19.26;61.36;98405.66;4991918;28;20578;-70
2022/05/12 07:54:25;;;;;;;5.73;1.80;;;;;;;19.34;60.88;98407.81;5023970;28;20236;-69
2022/05/12 07:56:51;;;;;;;6.83;1.90;;;;;;;19.39;60.66;98415.94;5072930;28;20215;-70
2022/05/12 07:59:18;;;;;;;2.83;1.47;;;;;;;19.31;60.22;98412.91;5073064;28;20315;-70
2022/05/12 08:01:44;;;;;;;3.30;1.73;;;;;;;19.35;62.07;98414.84;5072842;28;20200;-69
2022/05/12 08:04:12;;;;;;;3.97;1.87;;;;;;;19.35;60.89;98414.00;5073167;28;20201;-69
2022/05/12 08:06:40;;;;;;;1.97;1.77;;;;;;;19.29;60.13;98415.91;5073318;28;20243;-69
2022/05/12 08:09:07;;;;;;;2.97;1.60;;;;;;;19.38;59.59;98408.09;5073277;28;20224;-70
2022/05/12 08:11:33;;;;;;;5.83;1.67;;;;;;;19.49;59.48;98404.34;5073032;28;20235;-69
2022/05/12 08:14:08;;;;;;;6.33;1.90;;;;;;;19.42;59.67;98403.78;5073410;28;20205;-69
2022/05/12 08:16:37;;;;;;;4.00;1.73;;;;;;;19.61;59.65;98404.91;5073183;28;20184;-69
2022/05/12 08:19:11;;;;;;;3.20;1.63;;;;;;;19.73;59.06;98400.84;5072931;28;20229;-69
2022/05/12 08:21:51;;;;;;;5.53;1.70;;;;;;;19.88;60.76;98407.34;5073330;28;20193;-69
2022/05/12 08:24:18;;;;;;;3.57;1.50;;;;;;;20.16;61.49;98404.16;5073217;28;20216;-69
2022/05/12 08:26:44;;;;;;;4.17;1.87;;;;;;;20.24;59.10;98404.41;5072875;28;20557;-69
2022/05/12 08:29:10;;;;;;;4.10;1.40;;;;;;;20.59;57.03;98404.31;5072545;28;20591;-69
2022/05/12 08:31:37;;;;;;;3.20;2.00;;;;;;;20.27;57.71;98401.16;5073001;28;20237;-69
2022/05/12 08:34:03;;;;;;;3.77;1.50;;;;;;;20.27;57.94;98406.56;5072160;28;20706;-69
2022/05/12 08:36:30;;;;;;;2.77;1.50;;;;;;;20.34;57.86;98404.38;5072714;28;20201;-69
2022/05/12 08:38:57;;;;;;;3.83;1.70;;;;;;;20.35;57.25;98411.38;5072387;28;20674;-69
2022/05/12 08:41:39;;;;;;;6.70;1.80;;;;;;;20.21;57.87;98420.34;5072813;28;20215;-69
2022/05/12 08:44:16;;;;;;;7.07;1.70;;;;;;;20.50;58.06;98415.97;5072448;28;20647;-69
2022/05/12 08:53:20;;;;;;;2.73;1.67;;;;;;;20.96;55.41;98417.47;4920618;28;20236;-69
2022/05/12 08:55:53;;;;;;;4.10;2.00;;;;;;;21.01;54.84;98420.13;5047375;28;20664;-69
2022/05/12 08:58:58;;;;;;;3.63;2.03;;;;;;;21.39;55.68;98424.84;5069678;28;20228;-69
2022/05/12 09:02:11;;;;;;;5.03;1.93;;;;;;;21.19;53.34;98427.63;5050398;28;20248;-69
2022/05/12 09:05:19;;;;;;;2.03;1.73;;;;;;;21.35;53.32;98429.19;5050841;28;20190;-69
2022/05/12 09:08:12;;;;;;;3.80;1.90;;;;;;;21.05;54.12;98422.03;5048707;28;20379;-70
2022/05/12 09:10:59;;;;;;;4.27;2.00;;;;;;;21.09;53.82;98435.78;5070719;28;20243;-70
2022/05/12 09:13:54;;;;;;;5.00;2.03;;;;;;;21.46;54.07;98419.91;5071989;28;20632;-69
2022/05/12 09:16:29;;;;;;;4.73;1.80;;;;;;;21.56;52.35;98404.44;5072455;28;20207;-69
2022/05/12 09:18:55;;;;;;;5.20;2.17;;;;;;;21.78;53.14;98404.03;5072206;28;20234;-69
2022/05/12 09:21:59;;;;;;;3.03;1.90;;;;;;;21.80;52.11;98407.28;5072410;28;20213;-69
2022/05/12 09:24:25;;;;;;;1.80;1.70;;;;;;;21.82;52.65;98408.63;5072478;28;20188;-69
2022/05/12 09:27:07;;;;;;;5.53;2.20;;;;;;;21.80;52.75;98408.06;5074526;28;20543;-69
2022/05/12 09:29:48;;;;;;;3.70;2.00;;;;;;;22.01;51.52;98404.13;5075632;28;20279;-69
2022/05/12 09:32:14;;;;;;;2.97;2.23;;;;;;;21.85;51.48;98405.34;5075422;28;20185;-69
2022/05/12 09:34:47;;;;;;;5.73;2.13;;;;;;;21.51;52.24;98403.66;5075768;28;20262;-69
2022/05/12 09:37:13;;;;;;;4.67;2.27;;;;;;;21.55;52.88;98410.13;5075583;28;20225;-69
2022/05/12 09:39:45;;;;;;;4.70;2.10;;;;;;;22.04;54.12;98408.16;5075332;28;20718;-69
2022/05/12 09:42:38;;;;;;;4.40;1.97;;;;;;;22.02;52.00;98408.44;5075720;28;20607;-69
2022/05/12 09:45:07;;;;;;;6.00;2.60;;;;;;;21.45;52.43;98410.19;5075103;28;20209;-71
2022/05/12 09:47:34;;;;;;;2.40;2.10;;;;;;;21.57;52.33;98410.66;5074940;28;20711;-69
2022/05/12 09:50:17;;;;;;;4.50;2.70;;;;;;;21.86;53.03;98411.56;5075232;28;20201;-70
2022/05/12 09:53:07;;;;;;;3.20;2.20;;;;;;;21.81;53.22;98417.00;5075644;28;20327;-69
2022/05/12 09:55:40;;;;;;;3.43;2.00;;;;;;;22.13;51.94;98409.16;5074744;28;20312;-69
2022/05/12 09:58:15;;;;;;;3.27;1.97;;;;;;;22.32;50.96;98407.38;5075308;28;20228;-70
2022/05/12 10:00:50;;;;;;;2.37;2.17;;;;;;;22.76;51.40;98403.41;5074877;28;20220;-69
2022/05/12 10:09:22;;;;;;;4.07;2.17;;;;;;;22.37;51.17;98399.19;5074768;28;20262;-69
2022/05/12 10:12:20;;;;;;;;;;;;;;;;;;;;;
2022/05/12 10:15:24;;;;;;;6.00;2.53;;;;;;;22.45;50.27;98387.72;5074061;28;20223;-70
2022/05/12 10:18:25;;;;;;;3.60;2.37;;;;;;;22.34;50.32;98386.22;5074924;28;20316;-70
2022/05/12 10:21:11;;;;;;;5.67;2.23;;;;;;;22.33;50.38;98385.41;5075148;28;20208;-70
2022/05/12 10:24:31;;;;;;;3.40;2.07;;;;;;;22.69;49.87;98394.00;5074235;28;20189;-73
2022/05/12 10:31:00;;;;;;;5.28;3.53;;;;;;;23.08;50.64;98371.03;5051146;28;20204;-70
2022/05/12 10:34:14;;;;;;;4.85;2.60;;;;;;;23.54;47.02;98368.47;5032897;28;20676;-71
2022/05/12 10:37:25;;;;;;;4.40;2.80;;;;;;;23.90;46.75;98364.13;5054082;28;20680;-70
2022/05/12 10:40:29;;;;;;;6.80;4.63;;;;;;;23.36;47.57;98363.88;5054013;28;20213;-71
2022/05/12 10:43:20;;;;;;;8.73;4.68;;;;;;;23.31;48.21;98351.19;5054372;28;20278;-71
2022/05/12 10:45:56;;;;;;;7.07;4.18;;;;;;;22.51;48.34;98365.75;5054109;28;20558;-71
2022/05/12 10:48:48;;;;;;;6.10;2.75;;;;;;;22.46;49.05;98365.81;5054622;28;20684;-71
2022/05/12 10:51:58;;;;;;;3.13;2.55;;;;;;;22.53;48.93;98354.63;5053740;28;20637;-71
2022/05/12 10:55:43;;;;;;;4.45;3.78;;;;;;;23.05;50.28;98346.38;5053901;28;20208;-71
2022/05/12 10:58:28;;;;;;;9.13;7.47;;;;;;;23.23;48.08;98345.59;5032832;28;20304;-71
2022/05/12 11:01:05;;;;;;;3.17;2.88;;;;;;;22.98;47.60;98351.34;5053542;28;20676;-70
2022/05/12 11:03:54;;;;;;;3.55;3.05;;;;;;;22.99;47.66;98347.53;5054219;28;20189;-70
2022/05/12 11:06:32;;;;;;;5.20;2.90;;;;;;;23.17;48.41;98342.16;5053027;28;20281;-70
2022/05/12 11:09:16;;;;;;;6.38;3.53;;;;;;;23.60;47.47;98340.97;5052650;28;20229;-70
2022/05/12 11:11:49;;;;;;;7.97;5.72;;;;;;;23.61;48.49;98328.22;5053008;28;20280;-70
2022/05/12 11:14:35;;;;;;;9.65;6.05;;;;;;;23.57;48.12;98335.34;5054244;28;20258;-71
2022/05/12 11:17:46;;;;;;;21.35;19.15;;;;;;;23.38;48.37;98329.13;5053600;28;20197;-70
2022/05/12 11:20:50;;;;;;;4.28;3.22;;;;;;;22.87;48.24;98330.88;5016532;28;20663;-70
2022/05/12 11:23:19;;;;;;;10.77;9.68;;;;;;;22.99;49.25;98328.56;5045704;28;20205;-71
2022/05/12 11:26:11;;;;;;;4.25;3.88;;;;;;;23.31;49.70;98336.81;5053657;28;20205;-71
2022/05/12 11:32:11;;;;;;;6.78;5.57;;;;;;;23.14;48.43;98329.16;5053584;28;20219;-71
2022/05/12 11:34:45;;;;;;;6.97;4.07;;;;;;;23.62;50.24;98321.69;5053308;28;20549;-71
2022/05/12 11:37:42;;;;;;;7.63;5.43;;;;;;;23.78;46.50;98320.34;5052887;28;20256;-71
2022/05/12 11:40:36;;;;;;;2.75;2.53;;;;;;;23.85;48.42;98331.59;5053457;28;20213;-70
2022/05/12 11:46:46;;;;;;;;;;;;;;;;;;;;;
2022/05/12 11:52:57;;;;;;;;;;;;;;;;;;;;;
2022/05/12 11:56:21;;;;;;;5.35;3.20;;;;;;;23.32;48.41;98303.97;5034481;28;20213;-71
2022/05/12 12:02:35;;;;;;;5.10;4.53;;;;;;;23.71;46.44;98295.47;5011062;28;20304;-70
2022/05/12 12:05:08;;;;;;;6.32;2.90;;;;;;;23.73;47.51;98304.09;5052909;28;20189;-71
2022/05/12 12:07:35;;;;;;;3.47;2.78;;;;;;;23.58;48.03;98302.47;5052668;28;20399;-71
2022/05/12 12:27:26;;;;;;;4.38;2.22;;;;;;;23.86;47.27;98277.00;4856677;29;20330;-70
2022/05/12 12:33:29;;;;;;;5.72;2.78;;;;;;;24.11;47.29;98281.22;4890317;29;20210;-70
2022/05/12 12:40:01;;;;;;;7.05;2.60;;;;;;;24.51;46.23;98280.41;4892092;29;20238;-71
2022/05/12 12:52:24;;;;;;;4.40;2.70;;;;;;;24.51;47.20;98261.38;4970764;28;20212;-71
2022/05/12 13:01:32;;;;;;;5.95;2.55;;;;;;;24.09;46.12;98277.97;4925007;28;20233;-70
2022/05/12 13:11:21;;;;;;;5.70;3.10;;;;;;;24.43;47.76;98257.44;4990518;28;20203;-70
2022/05/12 13:13:57;;;;;;;2.60;2.30;;;;;;;24.20;48.94;98265.81;5055777;28;20632;-70
2022/05/12 13:16:29;;;;;;;5.30;2.70;;;;;;;24.33;47.42;98260.38;5056087;28;20197;-71
2022/05/12 13:19:04;;;;;;;4.78;2.78;;;;;;;24.63;48.24;98253.53;5056215;28;20254;-70
2022/05/12 13:21:36;;;;;;;3.50;2.20;;;;;;;24.68;46.32;98277.91;5056051;28;20209;-71
2022/05/12 13:24:17;;;;;;;8.73;4.85;;;;;;;24.30;46.69;98263.72;5056263;28;20200;-70
2022/05/12 13:26:52;;;;;;;11.38;8.73;;;;;;;24.13;47.91;98254.53;5036722;28;20236;-70
2022/05/12 13:29:38;;;;;;;8.05;5.85;;;;;;;24.24;48.41;98251.31;5038765;28;20195;-70
2022/05/12 13:35:30;;;;;;;13.20;8.52;;;;;;;24.27;47.32;98247.19;5055718;28;20567;-71
2022/05/12 13:38:48;;;;;;;3.88;2.95;;;;;;;24.37;48.27;98247.00;5055701;28;20320;-70
2022/05/12 13:45:21;;;;;;;3.67;2.63;;;;;;;24.40;48.28;98232.78;4974732;28;20211;-71
2022/05/12 13:48:27;;;;;;;3.47;2.80;;;;;;;24.04;48.58;98234.59;4973739;28;20232;-70
2022/05/12 13:51:19;;;;;;;;;;;;;;;;;;;;;
2022/05/12 14:00:33;;;;;;;4.30;2.40;;;;;;;23.87;49.02;98218.06;4959682;28;20323;-69
2022/05/12 14:03:27;;;;;;;10.10;2.47;;;;;;;23.97;48.07;98221.41;5034372;28;20211;-69
2022/05/12 14:10:12;;;;;;;6.82;2.40;;;;;;;23.54;49.39;98208.34;5019111;28;20205;-70
2022/05/12 14:22:11;;;;;;;4.20;2.63;;;;;;;23.79;48.14;98216.06;5054706;28;20232;-70
2022/05/12 14:24:57;;;;;;;4.80;2.75;;;;;;;23.90;48.60;98215.59;5054838;28;20189;-69
2022/05/12 14:27:26;;;;;;;3.50;2.17;;;;;;;23.87;48.24;98207.19;5054360;28;20311;-70
2022/05/12 14:29:53;;;;;;;3.38;2.08;;;;;;;23.95;48.26;98218.22;5054704;28;20201;-69
2022/05/12 14:32:29;;;;;;;10.20;3.50;;;;;;;23.98;48.12;98204.03;5054248;28;20212;-69